sensor_id;sensor_type;location;lat;lon;timestamp;pressure;altitude;pressure_sealevel;temperature;humidity
10480;BME280;12789;42.610;23.040;2022-09-28T00:00:40;92684.19;;;10.79;100.00
10480;BME280;12789;42.610;23.040;2022-09-28T00:03:07;92680.34;;;10.75;100.00
10480;BME280;12789;42.610;23.040;2022-09-28T00:05:34;92671.78;;;10.67;100.00
10480;BME280;12789;42.610;23.040;2022-09-28T00:08:01;92678.13;;;10.64;100.00
10480;BME280;12789;42.610;23.040;2022-09-28T00:10:28;92683.94;;;10.58;100.00
10480;BME280;12789;42.610;23.040;2022-09-28T00:12:57;92664.41;;;10.40;100.00
10480;BME280;12789;42.610;23.040;2022-09-28T00:15:25;92660.50;;;10.52;100.00
10480;BME280;12789;42.610;23.040;2022-09-28T00:17:51;92654.19;;;10.46;100.00
10480;BME280;12789;42.610;23.040;2022-09-28T00:20:18;92671.19;;;10.57;100.00
10480;BME280;12789;42.610;23.040;2022-09-28T00:22:47;92668.66;;;10.33;100.00
10480;BME280;12789;42.610;23.040;2022-09-28T00:25:14;92662.63;;;10.48;100.00
10480;BME280;12789;42.610;23.040;2022-09-28T00:27:41;92678.03;;;10.42;100.00
10480;BME280;12789;42.610;23.040;2022-09-28T00:30:10;92680.06;;;10.62;100.00
10480;BME280;12789;42.610;23.040;2022-09-28T00:32:37;92665.84;;;10.50;100.00
10480;BME280;12789;42.610;23.040;2022-09-28T00:35:04;92678.81;;;10.42;100.00
10480;BME280;12789;42.610;23.040;2022-09-28T00:37:31;92676.41;;;10.41;100.00
10480;BME280;12789;42.610;23.040;2022-09-28T00:39:58;92672.53;;;10.45;100.00
10480;BME280;12789;42.610;23.040;2022-09-28T00:42:25;92673.16;;;10.39;100.00
10480;BME280;12789;42.610;23.040;2022-09-28T00:44:52;92685.13;;;10.40;100.00
10480;BME280;12789;42.610;23.040;2022-09-28T00:47:42;92671.41;;;10.32;100.00
10480;BME280;12789;42.610;23.040;2022-09-28T00:50:22;92685.38;;;9.99;100.00
10480;BME280;12789;42.610;23.040;2022-09-28T00:52:53;92684.41;;;10.00;100.00
10480;BME280;12789;42.610;23.040;2022-09-28T00:55:26;92679.16;;;10.39;100.00
10480;BME280;12789;42.610;23.040;2022-09-28T00:57:57;92680.19;;;9.99;100.00
10480;BME280;12789;42.610;23.040;2022-09-28T01:00:26;92684.56;;;10.14;100.00
10480;BME280;12789;42.610;23.040;2022-09-28T01:02:54;92662.09;;;9.75;100.00
10480;BME280;12789;42.610;23.040;2022-09-28T01:05:22;92657.03;;;9.97;100.00
10480;BME280;12789;42.610;23.040;2022-09-28T01:07:50;92689.59;;;9.92;100.00
10480;BME280;12789;42.610;23.040;2022-09-28T01:10:17;92702.84;;;9.97;100.00
10480;BME280;12789;42.610;23.040;2022-09-28T01:12:44;92677.28;;;9.94;100.00
10480;BME280;12789;42.610;23.040;2022-09-28T01:15:11;92693.81;;;9.85;100.00
10480;BME280;12789;42.610;23.040;2022-09-28T01:18:03;92682.78;;;10.07;100.00
10480;BME280;12789;42.610;23.040;2022-09-28T01:20:47;92682.94;;;10.13;100.00
10480;BME280;12789;42.610;23.040;2022-09-28T01:23:58;92693.16;;;9.91;100.00
10480;BME280;12789;42.610;23.040;2022-09-28T01:26:47;92693.16;;;9.91;100.00
10480;BME280;12789;42.610;23.040;2022-09-28T01:29:19;92684.75;;;10.05;100.00
10480;BME280;12789;42.610;23.040;2022-09-28T01:31:51;92686.97;;;10.00;100.00
10480;BME280;12789;42.610;23.040;2022-09-28T01:34:24;92687.97;;;10.07;100.00
10480;BME280;12789;42.610;23.040;2022-09-28T01:36:54;92693.59;;;9.94;100.00
10480;BME280;12789;42.610;23.040;2022-09-28T01:39:27;92681.16;;;9.98;100.00
10480;BME280;12789;42.610;23.040;2022-09-28T01:41:59;92694.09;;;10.14;100.00
10480;BME280;12789;42.610;23.040;2022-09-28T01:44:28;92699.59;;;10.11;100.00
10480;BME280;12789;42.610;23.040;2022-09-28T01:46:57;92690.69;;;10.21;100.00
10480;BME280;12789;42.610;23.040;2022-09-28T01:49:31;92696.53;;;10.15;100.00
10480;BME280;12789;42.610;23.040;2022-09-28T01:52:05;92698.31;;;10.23;100.00
10480;BME280;12789;42.610;23.040;2022-09-28T01:54:37;92695.72;;;10.15;100.00
10480;BME280;12789;42.610;23.040;2022-09-28T01:57:11;92689.41;;;10.17;100.00
10480;BME280;12789;42.610;23.040;2022-09-28T01:59:44;92687.63;;;10.18;100.00
10480;BME280;12789;42.610;23.040;2022-09-28T02:02:17;92694.63;;;10.09;100.00
10480;BME280;12789;42.610;23.040;2022-09-28T02:04:49;92686.69;;;10.03;100.00
10480;BME280;12789;42.610;23.040;2022-09-28T02:07:21;92700.28;;;10.05;100.00
10480;BME280;12789;42.610;23.040;2022-09-28T02:09:53;92698.78;;;9.94;100.00
10480;BME280;12789;42.610;23.040;2022-09-28T02:12:26;92696.50;;;9.99;100.00
10480;BME280;12789;42.610;23.040;2022-09-28T02:15:05;92698.66;;;9.88;100.00
10480;BME280;12789;42.610;23.040;2022-09-28T02:17:36;92710.63;;;9.89;100.00
10480;BME280;12789;42.610;23.040;2022-09-28T02:20:04;92685.06;;;9.86;100.00
10480;BME280;12789;42.610;23.040;2022-09-28T02:22:35;92679.25;;;9.52;100.00
10480;BME280;12789;42.610;23.040;2022-09-28T02:25:08;92691.19;;;9.77;100.00
10480;BME280;12789;42.610;23.040;2022-09-28T02:27:41;92688.47;;;9.78;100.00
10480;BME280;12789;42.610;23.040;2022-09-28T02:30:09;92678.25;;;9.69;100.00
10480;BME280;12789;42.610;23.040;2022-09-28T02:32:39;92688.28;;;9.64;100.00
10480;BME280;12789;42.610;23.040;2022-09-28T02:35:11;92689.41;;;9.85;100.00
10480;BME280;12789;42.610;23.040;2022-09-28T02:37:39;92692.47;;;9.81;100.00
10480;BME280;12789;42.610;23.040;2022-09-28T02:40:14;92693.47;;;9.88;100.00
10480;BME280;12789;42.610;23.040;2022-09-28T02:42:51;92686.34;;;9.90;100.00
10480;BME280;12789;42.610;23.040;2022-09-28T02:45:34;92689.44;;;9.69;100.00
10480;BME280;12789;42.610;23.040;2022-09-28T02:48:11;92699.13;;;9.91;100.00
10480;BME280;12789;42.610;23.040;2022-09-28T02:50:48;92679.88;;;9.94;100.00
10480;BME280;12789;42.610;23.040;2022-09-28T02:53:27;92680.22;;;9.83;100.00
10480;BME280;12789;42.610;23.040;2022-09-28T02:56:09;92682.81;;;9.59;100.00
10480;BME280;12789;42.610;23.040;2022-09-28T02:58:52;92686.53;;;9.64;100.00
10480;BME280;12789;42.610;23.040;2022-09-28T03:01:27;92672.75;;;9.72;100.00
10480;BME280;12789;42.610;23.040;2022-09-28T03:04:03;92687.63;;;9.78;100.00
10480;BME280;12789;42.610;23.040;2022-09-28T03:06:39;92698.97;;;9.85;100.00
10480;BME280;12789;42.610;23.040;2022-09-28T03:09:13;92690.53;;;9.99;100.00
10480;BME280;12789;42.610;23.040;2022-09-28T03:11:46;92722.75;;;9.64;100.00
10480;BME280;12789;42.610;23.040;2022-09-28T03:14:16;92706.22;;;9.89;100.00
10480;BME280;12789;42.610;23.040;2022-09-28T03:16:43;92702.19;;;9.95;100.00
10480;BME280;12789;42.610;23.040;2022-09-28T03:19:11;92703.66;;;9.89;100.00
10480;BME280;12789;42.610;23.040;2022-09-28T03:21:38;92710.91;;;9.78;100.00
10480;BME280;12789;42.610;23.040;2022-09-28T03:24:06;92711.41;;;9.81;100.00
10480;BME280;12789;42.610;23.040;2022-09-28T03:26:35;92713.03;;;9.90;100.00
10480;BME280;12789;42.610;23.040;2022-09-28T03:29:02;92708.34;;;9.78;100.00
10480;BME280;12789;42.610;23.040;2022-09-28T03:31:30;92715.94;;;9.95;100.00
10480;BME280;12789;42.610;23.040;2022-09-28T03:33:57;92717.22;;;9.91;100.00
10480;BME280;12789;42.610;23.040;2022-09-28T03:36:27;92731.66;;;10.10;100.00
10480;BME280;12789;42.610;23.040;2022-09-28T03:38:53;92723.88;;;10.10;100.00
10480;BME280;12789;42.610;23.040;2022-09-28T03:41:22;92714.81;;;10.06;100.00
10480;BME280;12789;42.610;23.040;2022-09-28T03:43:49;92720.47;;;10.17;100.00
10480;BME280;12789;42.610;23.040;2022-09-28T03:46:16;92725.00;;;10.23;100.00
10480;BME280;12789;42.610;23.040;2022-09-28T03:48:44;92713.97;;;10.37;100.00
10480;BME280;12789;42.610;23.040;2022-09-28T03:51:11;92715.09;;;10.42;100.00
10480;BME280;12789;42.610;23.040;2022-09-28T03:53:39;92706.00;;;10.46;100.00
10480;BME280;12789;42.610;23.040;2022-09-28T03:56:09;92712.00;;;10.39;100.00
10480;BME280;12789;42.610;23.040;2022-09-28T03:58:37;92704.09;;;10.40;100.00
10480;BME280;12789;42.610;23.040;2022-09-28T04:01:05;92721.09;;;10.43;100.00
10480;BME280;12789;42.610;23.040;2022-09-28T04:03:33;92722.56;;;10.38;100.00
10480;BME280;12789;42.610;23.040;2022-09-28T04:06:01;92724.16;;;10.46;100.00
10480;BME280;12789;42.610;23.040;2022-09-28T04:08:28;92729.44;;;10.61;100.00
10480;BME280;12789;42.610;23.040;2022-09-28T04:10:55;92705.69;;;10.49;100.00
10480;BME280;12789;42.610;23.040;2022-09-28T04:13:22;92689.84;;;10.37;100.00
10480;BME280;12789;42.610;23.040;2022-09-28T04:15:54;92719.25;;;10.67;100.00
10480;BME280;12789;42.610;23.040;2022-09-28T04:18:21;92718.81;;;10.48;100.00
10480;BME280;12789;42.610;23.040;2022-09-28T04:20:57;92717.84;;;10.41;100.00
10480;BME280;12789;42.610;23.040;2022-09-28T04:23:26;92719.94;;;10.45;100.00
10480;BME280;12789;42.610;23.040;2022-09-28T04:25:52;92733.13;;;10.12;100.00
10480;BME280;12789;42.610;23.040;2022-09-28T04:28:20;92727.09;;;10.28;100.00
10480;BME280;12789;42.610;23.040;2022-09-28T04:31:08;92729.50;;;10.29;100.00
10480;BME280;12789;42.610;23.040;2022-09-28T04:33:34;92708.03;;;10.05;100.00
10480;BME280;12789;42.610;23.040;2022-09-28T04:36:01;92722.59;;;10.22;100.00
10480;BME280;12789;42.610;23.040;2022-09-28T04:38:30;92726.16;;;10.21;100.00
10480;BME280;12789;42.610;23.040;2022-09-28T04:40:57;92727.13;;;10.12;100.00
10480;BME280;12789;42.610;23.040;2022-09-28T04:43:24;92734.56;;;10.07;100.00
10480;BME280;12789;42.610;23.040;2022-09-28T04:45:51;92724.22;;;10.07;100.00
10480;BME280;12789;42.610;23.040;2022-09-28T04:48:17;92741.03;;;10.03;100.00
10480;BME280;12789;42.610;23.040;2022-09-28T04:50:52;92740.06;;;10.04;100.00
10480;BME280;12789;42.610;23.040;2022-09-28T04:53:19;92751.38;;;10.35;100.00
10480;BME280;12789;42.610;23.040;2022-09-28T04:55:56;92737.81;;;10.01;100.00
10480;BME280;12789;42.610;23.040;2022-09-28T04:58:23;92726.16;;;10.21;100.00
10480;BME280;12789;42.610;23.040;2022-09-28T05:00:51;92708.66;;;9.99;100.00
10480;BME280;12789;42.610;23.040;2022-09-28T05:03:19;92731.63;;;10.34;100.00
10480;BME280;12789;42.610;23.040;2022-09-28T05:05:47;92730.97;;;10.39;100.00
10480;BME280;12789;42.610;23.040;2022-09-28T05:08:14;92740.31;;;10.56;100.00
10480;BME280;12789;42.610;23.040;2022-09-28T05:10:41;92733.16;;;10.58;100.00
10480;BME280;12789;42.610;23.040;2022-09-28T05:13:11;92742.56;;;10.67;100.00
10480;BME280;12789;42.610;23.040;2022-09-28T05:15:38;92739.16;;;10.67;100.00
10480;BME280;12789;42.610;23.040;2022-09-28T05:18:06;92756.81;;;10.63;100.00
10480;BME280;12789;42.610;23.040;2022-09-28T05:20:38;92739.94;;;10.75;100.00
10480;BME280;12789;42.610;23.040;2022-09-28T05:23:05;92743.72;;;10.57;100.00
10480;BME280;12789;42.610;23.040;2022-09-28T05:25:34;92745.34;;;10.58;100.00
10480;BME280;12789;42.610;23.040;2022-09-28T05:28:01;92748.41;;;10.61;100.00
10480;BME280;12789;42.610;23.040;2022-09-28T05:30:29;92752.88;;;10.83;100.00
10480;BME280;12789;42.610;23.040;2022-09-28T05:32:56;92760.91;;;10.96;100.00
10480;BME280;12789;42.610;23.040;2022-09-28T05:35:23;92764.19;;;10.90;100.00
10480;BME280;12789;42.610;23.040;2022-09-28T05:37:50;92771.06;;;10.67;100.00
10480;BME280;12789;42.610;23.040;2022-09-28T05:40:17;92772.00;;;10.74;100.00
10480;BME280;12789;42.610;23.040;2022-09-28T05:42:44;92782.00;;;10.93;100.00
10480;BME280;12789;42.610;23.040;2022-09-28T05:45:11;92779.75;;;10.82;100.00
10480;BME280;12789;42.610;23.040;2022-09-28T05:47:40;92760.06;;;10.57;100.00
10480;BME280;12789;42.610;23.040;2022-09-28T05:50:09;92772.69;;;10.68;100.00
10480;BME280;12789;42.610;23.040;2022-09-28T05:52:36;92768.03;;;10.94;100.00
10480;BME280;12789;42.610;23.040;2022-09-28T05:55:04;92763.88;;;10.85;100.00
10480;BME280;12789;42.610;23.040;2022-09-28T05:57:31;92762.72;;;10.96;100.00
10480;BME280;12789;42.610;23.040;2022-09-28T05:59:58;92759.50;;;11.24;100.00
10480;BME280;12789;42.610;23.040;2022-09-28T06:02:25;92763.41;;;11.20;100.00
10480;BME280;12789;42.610;23.040;2022-09-28T06:04:53;92761.81;;;11.19;100.00
10480;BME280;12789;42.610;23.040;2022-09-28T06:07:20;92770.97;;;10.91;100.00
10480;BME280;12789;42.610;23.040;2022-09-28T06:09:47;92768.03;;;10.94;100.00
10480;BME280;12789;42.610;23.040;2022-09-28T06:12:14;92769.09;;;11.16;100.00
10480;BME280;12789;42.610;23.040;2022-09-28T06:14:41;92763.91;;;11.16;100.00
10480;BME280;12789;42.610;23.040;2022-09-28T06:17:08;92767.00;;;11.50;100.00
10480;BME280;12789;42.610;23.040;2022-09-28T06:19:35;92770.06;;;11.53;100.00
10480;BME280;12789;42.610;23.040;2022-09-28T06:22:03;92764.06;;;11.53;100.00
10480;BME280;12789;42.610;23.040;2022-09-28T06:24:30;92769.88;;;11.63;100.00
10480;BME280;12789;42.610;23.040;2022-09-28T06:26:57;92767.19;;;11.79;100.00
10480;BME280;12789;42.610;23.040;2022-09-28T06:29:23;92734.16;;;12.09;100.00
10480;BME280;12789;42.610;23.040;2022-09-28T06:31:50;92778.13;;;12.33;100.00
10480;BME280;12789;42.610;23.040;2022-09-28T06:34:17;92780.06;;;12.17;100.00
10480;BME280;12789;42.610;23.040;2022-09-28T06:36:45;92779.75;;;12.49;100.00
10480;BME280;12789;42.610;23.040;2022-09-28T06:39:14;92772.41;;;12.38;100.00
10480;BME280;12789;42.610;23.040;2022-09-28T06:41:41;92764.66;;;12.67;100.00
10480;BME280;12789;42.610;23.040;2022-09-28T06:44:08;92769.06;;;12.81;100.00
10480;BME280;12789;42.610;23.040;2022-09-28T06:46:35;92765.47;;;12.82;100.00
10480;BME280;12789;42.610;23.040;2022-09-28T06:49:04;92769.47;;;12.92;100.00
10480;BME280;12789;42.610;23.040;2022-09-28T06:51:35;92774.97;;;12.75;100.00
10480;BME280;12789;42.610;23.040;2022-09-28T06:54:02;92775.31;;;13.09;100.00
10480;BME280;12789;42.610;23.040;2022-09-28T06:56:35;92768.16;;;12.74;100.00
10480;BME280;12789;42.610;23.040;2022-09-28T06:59:04;92764.16;;;13.29;100.00
10480;BME280;12789;42.610;23.040;2022-09-28T07:01:31;92757.06;;;12.80;100.00
10480;BME280;12789;42.610;23.040;2022-09-28T07:03:58;92796.56;;;12.61;100.00
10480;BME280;12789;42.610;23.040;2022-09-28T07:06:27;92780.97;;;12.98;100.00
10480;BME280;12789;42.610;23.040;2022-09-28T07:08:56;92746.78;;;13.15;100.00
10480;BME280;12789;42.610;23.040;2022-09-28T07:11:26;92747.16;;;13.47;100.00
10480;BME280;12789;42.610;23.040;2022-09-28T07:13:57;92758.59;;;13.67;100.00
10480;BME280;12789;42.610;23.040;2022-09-28T07:16:24;92775.47;;;14.07;100.00
10480;BME280;12789;42.610;23.040;2022-09-28T07:18:51;92772.28;;;14.11;100.00
10480;BME280;12789;42.610;23.040;2022-09-28T07:21:19;92783.47;;;14.68;100.00
10480;BME280;12789;42.610;23.040;2022-09-28T07:23:47;92751.22;;;14.76;100.00
10480;BME280;12789;42.610;23.040;2022-09-28T07:26:17;92793.78;;;15.31;100.00
10480;BME280;12789;42.610;23.040;2022-09-28T07:28:46;92757.41;;;15.29;100.00
10480;BME280;12789;42.610;23.040;2022-09-28T07:31:17;92756.19;;;15.72;100.00
10480;BME280;12789;42.610;23.040;2022-09-28T07:33:48;92771.72;;;16.00;100.00
10480;BME280;12789;42.610;23.040;2022-09-28T07:36:18;92767.63;;;16.38;100.00
10480;BME280;12789;42.610;23.040;2022-09-28T07:38:47;92781.72;;;16.43;100.00
10480;BME280;12789;42.610;23.040;2022-09-28T07:41:14;92778.50;;;16.41;100.00
10480;BME280;12789;42.610;23.040;2022-09-28T07:43:46;92749.13;;;16.39;100.00
10480;BME280;12789;42.610;23.040;2022-09-28T07:46:13;92771.06;;;16.83;100.00
10480;BME280;12789;42.610;23.040;2022-09-28T07:48:43;92737.88;;;16.71;100.00
10480;BME280;12789;42.610;23.040;2022-09-28T07:51:10;92778.91;;;16.83;100.00
10480;BME280;12789;42.610;23.040;2022-09-28T07:53:37;92765.38;;;17.06;100.00
10480;BME280;12789;42.610;23.040;2022-09-28T07:56:05;92757.94;;;17.16;100.00
10480;BME280;12789;42.610;23.040;2022-09-28T07:58:35;92781.91;;;17.19;100.00
10480;BME280;12789;42.610;23.040;2022-09-28T08:01:04;92765.63;;;17.04;100.00
10480;BME280;12789;42.610;23.040;2022-09-28T08:03:32;92777.84;;;17.49;100.00
10480;BME280;12789;42.610;23.040;2022-09-28T08:06:02;92767.53;;;17.67;100.00
10480;BME280;12789;42.610;23.040;2022-09-28T08:08:32;92776.06;;;17.37;100.00
10480;BME280;12789;42.610;23.040;2022-09-28T08:11:00;92785.50;;;17.51;100.00
10480;BME280;12789;42.610;23.040;2022-09-28T08:13:27;92743.09;;;17.73;100.00
10480;BME280;12789;42.610;23.040;2022-09-28T08:15:59;92783.16;;;17.87;100.00
10480;BME280;12789;42.610;23.040;2022-09-28T08:18:26;92764.19;;;17.91;100.00
10480;BME280;12789;42.610;23.040;2022-09-28T08:20:54;92772.72;;;18.55;100.00
10480;BME280;12789;42.610;23.040;2022-09-28T08:23:40;92750.72;;;18.80;100.00
10480;BME280;12789;42.610;23.040;2022-09-28T08:26:07;92792.34;;;18.77;100.00
10480;BME280;12789;42.610;23.040;2022-09-28T08:28:34;92773.06;;;18.34;100.00
10480;BME280;12789;42.610;23.040;2022-09-28T08:31:02;92778.84;;;18.49;100.00
10480;BME280;12789;42.610;23.040;2022-09-28T08:33:32;92789.34;;;18.42;100.00
10480;BME280;12789;42.610;23.040;2022-09-28T08:36:00;92786.59;;;18.93;100.00
10480;BME280;12789;42.610;23.040;2022-09-28T08:38:29;92774.25;;;19.18;100.00
10480;BME280;12789;42.610;23.040;2022-09-28T08:41:05;92802.22;;;19.55;100.00
10480;BME280;12789;42.610;23.040;2022-09-28T08:43:53;92770.06;;;19.88;100.00
10480;BME280;12789;42.610;23.040;2022-09-28T08:46:25;92780.66;;;20.00;100.00
10480;BME280;12789;42.610;23.040;2022-09-28T08:48:58;92760.56;;;20.23;100.00
10480;BME280;12789;42.610;23.040;2022-09-28T08:51:29;92769.44;;;19.93;100.00
10480;BME280;12789;42.610;23.040;2022-09-28T08:54:02;92770.56;;;20.33;100.00
10480;BME280;12789;42.610;23.040;2022-09-28T08:56:38;92765.56;;;20.43;100.00
10480;BME280;12789;42.610;23.040;2022-09-28T08:59:11;92760.69;;;20.99;100.00
10480;BME280;12789;42.610;23.040;2022-09-28T09:01:43;92759.41;;;20.49;100.00
10480;BME280;12789;42.610;23.040;2022-09-28T09:04:13;92758.03;;;20.58;100.00
10480;BME280;12789;42.610;23.040;2022-09-28T09:07:17;92756.91;;;21.06;100.00
10480;BME280;12789;42.610;23.040;2022-09-28T09:09:58;92749.38;;;21.21;100.00
10480;BME280;12789;42.610;23.040;2022-09-28T09:12:36;92753.94;;;21.83;100.00
10480;BME280;12789;42.610;23.040;2022-09-28T09:15:34;92750.63;;;21.07;100.00
10480;BME280;12789;42.610;23.040;2022-09-28T09:18:16;92744.97;;;21.95;100.00
10480;BME280;12789;42.610;23.040;2022-09-28T09:20:49;92741.44;;;21.44;100.00
10480;BME280;12789;42.610;23.040;2022-09-28T09:23:22;92736.88;;;21.74;93.31
10480;BME280;12789;42.610;23.040;2022-09-28T09:25:57;92743.88;;;21.34;91.78
10480;BME280;12789;42.610;23.040;2022-09-28T09:31:42;92740.38;;;21.91;90.58
10480;BME280;12789;42.610;23.040;2022-09-28T09:34:35;92735.94;;;22.19;90.18
10480;BME280;12789;42.610;23.040;2022-09-28T09:37:26;92729.56;;;22.32;88.51
10480;BME280;12789;42.610;23.040;2022-09-28T09:40:08;92734.81;;;22.43;86.23
10480;BME280;12789;42.610;23.040;2022-09-28T09:42:50;92729.59;;;22.76;85.02
10480;BME280;12789;42.610;23.040;2022-09-28T09:45:40;92720.31;;;22.18;85.77
10480;BME280;12789;42.610;23.040;2022-09-28T09:48:14;92721.44;;;22.22;84.92
10480;BME280;12789;42.610;23.040;2022-09-28T09:50:47;92723.41;;;22.26;86.70
10480;BME280;12789;42.610;23.040;2022-09-28T09:53:21;92687.63;;;22.47;85.28
10480;BME280;12789;42.610;23.040;2022-09-28T09:55:54;92730.38;;;22.76;84.56
10480;BME280;12789;42.610;23.040;2022-09-28T09:58:26;92725.22;;;22.81;84.26
10480;BME280;12789;42.610;23.040;2022-09-28T10:01:04;92720.28;;;24.58;82.09
10480;BME280;12789;42.610;23.040;2022-09-28T10:03:39;92704.16;;;23.36;81.81
10480;BME280;12789;42.610;23.040;2022-09-28T10:06:11;92727.44;;;22.73;83.34
10480;BME280;12789;42.610;23.040;2022-09-28T10:08:43;92716.88;;;22.89;83.29
10480;BME280;12789;42.610;23.040;2022-09-28T10:11:14;92695.97;;;23.04;85.68
10480;BME280;12789;42.610;23.040;2022-09-28T10:13:42;92679.06;;;23.22;83.67
10480;BME280;12789;42.610;23.040;2022-09-28T10:16:11;92699.81;;;23.30;81.28
10480;BME280;12789;42.610;23.040;2022-09-28T10:18:40;92715.00;;;23.56;82.59
10480;BME280;12789;42.610;23.040;2022-09-28T10:21:11;92705.00;;;23.79;77.74
10480;BME280;12789;42.610;23.040;2022-09-28T10:23:40;92704.16;;;24.38;80.45
10480;BME280;12789;42.610;23.040;2022-09-28T10:26:11;92707.16;;;24.73;76.88
10480;BME280;12789;42.610;23.040;2022-09-28T10:28:47;92694.03;;;23.33;76.71
10480;BME280;12789;42.610;23.040;2022-09-28T10:31:37;92701.72;;;23.89;77.12
10480;BME280;12789;42.610;23.040;2022-09-28T10:34:07;92696.25;;;23.57;75.49
10480;BME280;12789;42.610;23.040;2022-09-28T10:36:45;92692.22;;;23.93;74.01
10480;BME280;12789;42.610;23.040;2022-09-28T10:39:26;92691.63;;;23.86;71.46
10480;BME280;12789;42.610;23.040;2022-09-28T10:41:55;92700.44;;;24.39;72.03
10480;BME280;12789;42.610;23.040;2022-09-28T10:44:25;92669.47;;;23.92;73.90
10480;BME280;12789;42.610;23.040;2022-09-28T10:46:58;92688.75;;;23.33;71.25
10480;BME280;12789;42.610;23.040;2022-09-28T10:49:29;92684.94;;;24.26;71.02
10480;BME280;12789;42.610;23.040;2022-09-28T10:52:03;92675.75;;;23.10;69.37
10480;BME280;12789;42.610;23.040;2022-09-28T10:54:33;92676.25;;;22.63;69.57
10480;BME280;12789;42.610;23.040;2022-09-28T10:57:01;92697.38;;;22.46;69.20
10480;BME280;12789;42.610;23.040;2022-09-28T10:59:39;92670.13;;;23.44;70.03
10480;BME280;12789;42.610;23.040;2022-09-28T11:02:18;92681.22;;;22.92;68.53
10480;BME280;12789;42.610;23.040;2022-09-28T11:04:53;92682.09;;;22.65;71.11
10480;BME280;12789;42.610;23.040;2022-09-28T11:07:23;92668.25;;;22.30;70.58
10480;BME280;12789;42.610;23.040;2022-09-28T11:09:52;92660.81;;;22.55;72.91
10480;BME280;12789;42.610;23.040;2022-09-28T11:12:23;92661.22;;;23.12;68.77
10480;BME280;12789;42.610;23.040;2022-09-28T11:14:56;92657.09;;;23.97;65.81
10480;BME280;12789;42.610;23.040;2022-09-28T11:17:28;92655.75;;;24.74;65.64
10480;BME280;12789;42.610;23.040;2022-09-28T11:19:59;92645.34;;;23.12;66.26
10480;BME280;12789;42.610;23.040;2022-09-28T11:22:28;92646.25;;;22.85;66.68
10480;BME280;12789;42.610;23.040;2022-09-28T11:25:17;92646.16;;;22.80;67.02
10480;BME280;12789;42.610;23.040;2022-09-28T11:27:55;92644.75;;;23.65;65.52
10480;BME280;12789;42.610;23.040;2022-09-28T11:30:24;92630.41;;;23.39;66.76
10480;BME280;12789;42.610;23.040;2022-09-28T11:32:56;92647.28;;;22.68;69.62
10480;BME280;12789;42.610;23.040;2022-09-28T11:35:35;92649.81;;;23.28;68.89
10480;BME280;12789;42.610;23.040;2022-09-28T11:38:20;92635.69;;;23.39;66.54
10480;BME280;12789;42.610;23.040;2022-09-28T11:40:56;92637.66;;;22.94;69.34
10480;BME280;12789;42.610;23.040;2022-09-28T11:43:39;92646.09;;;22.91;67.86
10480;BME280;12789;42.610;23.040;2022-09-28T11:46:15;92639.13;;;22.85;67.08
10480;BME280;12789;42.610;23.040;2022-09-28T11:48:49;92644.81;;;22.61;67.10
10480;BME280;12789;42.610;23.040;2022-09-28T11:51:23;92623.91;;;22.92;67.28
10480;BME280;12789;42.610;23.040;2022-09-28T11:53:55;92632.94;;;23.51;69.34
10480;BME280;12789;42.610;23.040;2022-09-28T11:56:31;92640.31;;;22.78;68.14
10480;BME280;12789;42.610;23.040;2022-09-28T11:59:03;92626.16;;;23.60;66.09
10480;BME280;12789;42.610;23.040;2022-09-28T12:01:36;92635.34;;;23.95;66.03
10480;BME280;12789;42.610;23.040;2022-09-28T12:04:09;92616.19;;;23.67;65.73
10480;BME280;12789;42.610;23.040;2022-09-28T12:06:46;92610.03;;;23.18;65.85
10480;BME280;12789;42.610;23.040;2022-09-28T12:09:20;92633.25;;;23.97;65.33
10480;BME280;12789;42.610;23.040;2022-09-28T12:11:50;92617.00;;;23.89;67.18
10480;BME280;12789;42.610;23.040;2022-09-28T12:14:22;92619.78;;;23.01;67.95
10480;BME280;12789;42.610;23.040;2022-09-28T12:16:55;92604.94;;;23.55;67.63
10480;BME280;12789;42.610;23.040;2022-09-28T12:19:29;92609.25;;;23.39;68.32
10480;BME280;12789;42.610;23.040;2022-09-28T12:22:03;92628.16;;;23.10;67.75
10480;BME280;12789;42.610;23.040;2022-09-28T12:24:33;92620.22;;;22.61;66.97
10480;BME280;12789;42.610;23.040;2022-09-28T12:27:06;92625.28;;;22.46;67.49
10480;BME280;12789;42.610;23.040;2022-09-28T12:29:42;92596.59;;;22.21;66.97
10480;BME280;12789;42.610;23.040;2022-09-28T12:32:20;92620.81;;;22.18;68.59
10480;BME280;12789;42.610;23.040;2022-09-28T12:34:49;92587.97;;;21.98;69.91
10480;BME280;12789;42.610;23.040;2022-09-28T12:37:36;92614.94;;;22.00;68.69
10480;BME280;12789;42.610;23.040;2022-09-28T12:40:32;92628.16;;;22.00;70.12
10480;BME280;12789;42.610;23.040;2022-09-28T12:46:13;92629.66;;;22.40;69.88
10480;BME280;12789;42.610;23.040;2022-09-28T12:51:50;92628.31;;;22.38;70.41
10480;BME280;12789;42.610;23.040;2022-09-28T12:54:41;92622.41;;;22.36;69.62
10480;BME280;12789;42.610;23.040;2022-09-28T12:57:35;92617.84;;;22.43;70.05
10480;BME280;12789;42.610;23.040;2022-09-28T13:00:07;92629.06;;;22.22;70.49
10480;BME280;12789;42.610;23.040;2022-09-28T13:02:49;92620.47;;;22.43;69.85
10480;BME280;12789;42.610;23.040;2022-09-28T13:05:30;92629.22;;;22.32;69.03
10480;BME280;12789;42.610;23.040;2022-09-28T13:08:05;92632.09;;;22.14;69.31
10480;BME280;12789;42.610;23.040;2022-09-28T13:10:40;92618.44;;;22.33;70.35
10480;BME280;12789;42.610;23.040;2022-09-28T13:13:30;92629.91;;;21.83;70.51
10480;BME280;12789;42.610;23.040;2022-09-28T13:16:05;92637.78;;;21.94;70.19
10480;BME280;12789;42.610;23.040;2022-09-28T13:18:45;92636.88;;;21.89;69.11